sensor_id;sensor_type;location;lat;lon;timestamp;pressure;altitude;pressure_sealevel;temperature;humidity
6425;BME280;12193;42.642;23.384;2023-05-18T00:01:17;93918.56;;;12.07;100.00
6425;BME280;12193;42.642;23.384;2023-05-18T00:03:47;93914.38;;;12.06;100.00
6425;BME280;12193;42.642;23.384;2023-05-18T03:08:36;93982.09;;;12.81;100.00
6425;BME280;12193;42.642;23.384;2023-05-18T03:11:06;93983.47;;;12.83;100.00
6425;BME280;12193;42.642;23.384;2023-05-18T03:13:35;93984.28;;;12.84;100.00
6425;BME280;12193;42.642;23.384;2023-05-18T03:16:05;93991.97;;;12.79;100.00
6425;BME280;12193;42.642;23.384;2023-05-18T03:18:35;93999.91;;;12.72;100.00
6425;BME280;12193;42.642;23.384;2023-05-18T03:21:04;94002.97;;;12.69;100.00
6425;BME280;12193;42.642;23.384;2023-05-18T03:23:36;93993.00;;;12.78;100.00
6425;BME280;12193;42.642;23.384;2023-05-18T03:26:05;94002.63;;;12.89;100.00
6425;BME280;12193;42.642;23.384;2023-05-18T03:28:36;94004.44;;;12.88;100.00
6425;BME280;12193;42.642;23.384;2023-05-18T03:31:06;94005.00;;;12.79;100.00
6425;BME280;12193;42.642;23.384;2023-05-18T03:33:36;94010.34;;;12.72;100.00
6425;BME280;12193;42.642;23.384;2023-05-18T03:36:05;94009.41;;;12.67;100.00
6425;BME280;12193;42.642;23.384;2023-05-18T03:38:38;94010.31;;;12.61;100.00
6425;BME280;12193;42.642;23.384;2023-05-18T03:41:10;94006.22;;;12.65;100.00
6425;BME280;12193;42.642;23.384;2023-05-18T03:43:40;94006.06;;;12.37;100.00
6425;BME280;12193;42.642;23.384;2023-05-18T03:46:09;94006.66;;;12.39;100.00
6425;BME280;12193;42.642;23.384;2023-05-18T03:48:39;94007.00;;;12.54;100.00
6425;BME280;12193;42.642;23.384;2023-05-18T03:51:08;94008.38;;;12.68;100.00
6425;BME280;12193;42.642;23.384;2023-05-18T03:53:40;94014.16;;;12.58;100.00
6425;BME280;12193;42.642;23.384;2023-05-18T03:56:09;94020.03;;;12.54;100.00
6425;BME280;12193;42.642;23.384;2023-05-18T03:58:39;94018.34;;;12.59;100.00
6425;BME280;12193;42.642;23.384;2023-05-18T04:01:09;94026.31;;;12.64;100.00
6425;BME280;12193;42.642;23.384;2023-05-18T04:03:39;94024.28;;;12.66;100.00
6425;BME280;12193;42.642;23.384;2023-05-18T04:06:08;94030.25;;;12.67;100.00
6425;BME280;12193;42.642;23.384;2023-05-18T04:08:40;94031.19;;;12.72;100.00
6425;BME280;12193;42.642;23.384;2023-05-18T04:11:11;94040.03;;;12.71;100.00
6425;BME280;12193;42.642;23.384;2023-05-18T04:13:40;94042.72;;;12.65;100.00
6425;BME280;12193;42.642;23.384;2023-05-18T04:16:10;94039.56;;;12.63;100.00
6425;BME280;12193;42.642;23.384;2023-05-18T04:18:40;94040.91;;;12.54;100.00
6425;BME280;12193;42.642;23.384;2023-05-18T04:21:09;94038.53;;;12.64;100.00
6425;BME280;12193;42.642;23.384;2023-05-18T04:23:41;94041.59;;;12.61;100.00
6425;BME280;12193;42.642;23.384;2023-05-18T04:26:11;94032.94;;;12.49;100.00
6425;BME280;12193;42.642;23.384;2023-05-18T04:28:44;94032.16;;;12.48;100.00
6425;BME280;12193;42.642;23.384;2023-05-18T04:31:15;94033.09;;;12.54;100.00
6425;BME280;12193;42.642;23.384;2023-05-18T04:33:45;94039.00;;;12.61;100.00
6425;BME280;12193;42.642;23.384;2023-05-18T04:36:16;94037.75;;;12.63;100.00
6425;BME280;12193;42.642;23.384;2023-05-18T04:38:48;94037.88;;;12.68;100.00
6425;BME280;12193;42.642;23.384;2023-05-18T04:41:18;94041.84;;;12.71;100.00
6425;BME280;12193;42.642;23.384;2023-05-18T04:43:48;94045.94;;;12.78;100.00
6425;BME280;12193;42.642;23.384;2023-05-18T04:46:18;94051.28;;;12.83;100.00
6425;BME280;12193;42.642;23.384;2023-05-18T04:48:48;94061.84;;;12.88;100.00
6425;BME280;12193;42.642;23.384;2023-05-18T04:51:19;94058.66;;;12.86;100.00
6425;BME280;12193;42.642;23.384;2023-05-18T04:53:51;94056.41;;;12.90;100.00
6425;BME280;12193;42.642;23.384;2023-05-18T04:56:21;94062.19;;;12.92;100.00
6425;BME280;12193;42.642;23.384;2023-05-18T04:58:50;94066.47;;;12.86;100.00
6425;BME280;12193;42.642;23.384;2023-05-18T05:01:24;94073.47;;;12.63;100.00
6425;BME280;12193;42.642;23.384;2023-05-18T05:03:53;94073.69;;;12.61;100.00
6425;BME280;12193;42.642;23.384;2023-05-18T05:06:23;94074.16;;;12.70;100.00
6425;BME280;12193;42.642;23.384;2023-05-18T05:08:55;94076.06;;;12.74;100.00
6425;BME280;12193;42.642;23.384;2023-05-18T05:11:24;94083.78;;;12.58;100.00
6425;BME280;12193;42.642;23.384;2023-05-18T05:13:54;94084.31;;;12.48;100.00
6425;BME280;12193;42.642;23.384;2023-05-18T05:16:23;94078.13;;;12.61;100.00
6425;BME280;12193;42.642;23.384;2023-05-18T05:18:52;94085.84;;;12.67;100.00
6425;BME280;12193;42.642;23.384;2023-05-18T05:21:21;94086.31;;;12.76;100.00
6425;BME280;12193;42.642;23.384;2023-05-18T05:23:51;94091.31;;;12.89;100.00
6425;BME280;12193;42.642;23.384;2023-05-18T05:26:23;94094.31;;;12.92;100.00
6425;BME280;12193;42.642;23.384;2023-05-18T05:28:52;94094.31;;;12.92;100.00
6425;BME280;12193;42.642;23.384;2023-05-18T05:31:21;94100.97;;;12.88;100.00
6425;BME280;12193;42.642;23.384;2023-05-18T05:33:50;94106.22;;;13.00;100.00
6425;BME280;12193;42.642;23.384;2023-05-18T05:36:20;94105.22;;;13.01;100.00
6425;BME280;12193;42.642;23.384;2023-05-18T05:38:49;94110.78;;;13.04;100.00
6425;BME280;12193;42.642;23.384;2023-05-18T05:41:18;94107.25;;;12.99;100.00
6425;BME280;12193;42.642;23.384;2023-05-18T05:43:51;94103.94;;;12.92;100.00
6425;BME280;12193;42.642;23.384;2023-05-18T05:46:20;94107.38;;;13.04;100.00
6425;BME280;12193;42.642;23.384;2023-05-18T05:48:49;94111.91;;;12.97;100.00
6425;BME280;12193;42.642;23.384;2023-05-18T05:51:18;94112.06;;;12.84;100.00
6425;BME280;12193;42.642;23.384;2023-05-18T05:53:48;94108.28;;;12.68;100.00
6425;BME280;12193;42.642;23.384;2023-05-18T05:56:17;94108.84;;;12.70;100.00
6425;BME280;12193;42.642;23.384;2023-05-18T05:58:46;94107.50;;;12.79;100.00
6425;BME280;12193;42.642;23.384;2023-05-18T06:01:18;94105.56;;;12.75;100.00
6425;BME280;12193;42.642;23.384;2023-05-18T06:03:47;94112.56;;;12.92;100.00
6425;BME280;12193;42.642;23.384;2023-05-18T06:06:17;94115.41;;;13.02;100.00
6425;BME280;12193;42.642;23.384;2023-05-18T06:08:46;94104.78;;;13.04;100.00
6425;BME280;12193;42.642;23.384;2023-05-18T06:11:16;94111.66;;;12.98;100.00
6425;BME280;12193;42.642;23.384;2023-05-18T06:13:46;94120.53;;;13.09;100.00
6425;BME280;12193;42.642;23.384;2023-05-18T06:16:17;94117.59;;;13.17;100.00
6425;BME280;12193;42.642;23.384;2023-05-18T06:18:47;94130.78;;;13.22;100.00
6425;BME280;12193;42.642;23.384;2023-05-18T06:21:16;94123.28;;;13.25;100.00
6425;BME280;12193;42.642;23.384;2023-05-18T06:23:45;94131.78;;;13.21;100.00
6425;BME280;12193;42.642;23.384;2023-05-18T06:26:15;94134.72;;;13.13;100.00
6425;BME280;12193;42.642;23.384;2023-05-18T06:28:44;94133.59;;;13.20;100.00
6425;BME280;12193;42.642;23.384;2023-05-18T06:31:14;94142.13;;;13.27;100.00
6425;BME280;12193;42.642;23.384;2023-05-18T06:33:47;94137.34;;;13.24;100.00
6425;BME280;12193;42.642;23.384;2023-05-18T06:36:16;94135.97;;;13.10;100.00
6425;BME280;12193;42.642;23.384;2023-05-18T06:38:45;94141.44;;;13.32;100.00
6425;BME280;12193;42.642;23.384;2023-05-18T06:41:14;94145.97;;;13.48;100.00
6425;BME280;12193;42.642;23.384;2023-05-18T06:43:44;94148.25;;;13.55;100.00
6425;BME280;12193;42.642;23.384;2023-05-18T06:46:18;94141.91;;;13.63;100.00
6425;BME280;12193;42.642;23.384;2023-05-18T06:48:51;94154.84;;;13.69;100.00
6425;BME280;12193;42.642;23.384;2023-05-18T06:51:20;94152.22;;;13.69;100.00
6425;BME280;12193;42.642;23.384;2023-05-18T06:53:50;94155.19;;;13.73;100.00
6425;BME280;12193;42.642;23.384;2023-05-18T06:56:19;94155.28;;;13.89;100.00
6425;BME280;12193;42.642;23.384;2023-05-18T06:58:48;94159.25;;;14.03;100.00
6425;BME280;12193;42.642;23.384;2023-05-18T07:01:18;94174.00;;;14.21;100.00
6425;BME280;12193;42.642;23.384;2023-05-18T07:03:49;94172.44;;;13.97;100.00
6425;BME280;12193;42.642;23.384;2023-05-18T07:06:19;94175.72;;;13.92;100.00
6425;BME280;12193;42.642;23.384;2023-05-18T07:08:48;94176.16;;;14.12;100.00
6425;BME280;12193;42.642;23.384;2023-05-18T07:11:17;94183.44;;;14.10;100.00
6425;BME280;12193;42.642;23.384;2023-05-18T07:13:47;94187.34;;;14.19;100.00
6425;BME280;12193;42.642;23.384;2023-05-18T07:16:16;94186.63;;;14.12;100.00
6425;BME280;12193;42.642;23.384;2023-05-18T07:18:46;94185.47;;;14.08;100.00
6425;BME280;12193;42.642;23.384;2023-05-18T07:21:17;94178.47;;;13.97;100.00
6425;BME280;12193;42.642;23.384;2023-05-18T07:23:47;94192.09;;;13.88;100.00
6425;BME280;12193;42.642;23.384;2023-05-18T07:26:17;94195.03;;;13.80;100.00
6425;BME280;12193;42.642;23.384;2023-05-18T07:28:47;94194.94;;;13.75;100.00
6425;BME280;12193;42.642;23.384;2023-05-18T07:31:16;94197.44;;;13.81;100.00
6425;BME280;12193;42.642;23.384;2023-05-18T07:33:47;94199.69;;;13.78;100.00
6425;BME280;12193;42.642;23.384;2023-05-18T07:36:19;94192.91;;;13.54;100.00
6425;BME280;12193;42.642;23.384;2023-05-18T07:38:49;94209.13;;;13.67;100.00
6425;BME280;12193;42.642;23.384;2023-05-18T07:41:19;94210.94;;;13.55;100.00
6425;BME280;12193;42.642;23.384;2023-05-18T07:43:50;94215.38;;;13.55;100.00
6425;BME280;12193;42.642;23.384;2023-05-18T07:46:19;94220.34;;;13.45;100.00
6425;BME280;12193;42.642;23.384;2023-05-18T07:48:49;94225.78;;;13.32;100.00
6425;BME280;12193;42.642;23.384;2023-05-18T07:51:20;94228.91;;;13.11;100.00
6425;BME280;12193;42.642;23.384;2023-05-18T07:53:50;94236.84;;;13.16;100.00
6425;BME280;12193;42.642;23.384;2023-05-18T07:56:19;94241.22;;;13.04;100.00
6425;BME280;12193;42.642;23.384;2023-05-18T07:58:49;94242.16;;;13.10;100.00
6425;BME280;12193;42.642;23.384;2023-05-18T08:01:18;94245.19;;;13.07;100.00
6425;BME280;12193;42.642;23.384;2023-05-18T08:03:52;94247.81;;;13.07;100.00
6425;BME280;12193;42.642;23.384;2023-05-18T08:06:24;94245.44;;;13.05;100.00
6425;BME280;12193;42.642;23.384;2023-05-18T08:08:53;94255.06;;;13.05;100.00
6425;BME280;12193;42.642;23.384;2023-05-18T08:11:23;94261.47;;;13.20;100.00
6425;BME280;12193;42.642;23.384;2023-05-18T08:13:52;94257.50;;;13.18;100.00
6425;BME280;12193;42.642;23.384;2023-05-18T08:16:22;94267.31;;;13.34;100.00
6425;BME280;12193;42.642;23.384;2023-05-18T08:18:51;94267.31;;;13.34;100.00
6425;BME280;12193;42.642;23.384;2023-05-18T08:21:24;94280.56;;;13.21;100.00
6425;BME280;12193;42.642;23.384;2023-05-18T08:23:53;94279.44;;;13.28;100.00
6425;BME280;12193;42.642;23.384;2023-05-18T08:26:22;94278.81;;;13.15;100.00
6425;BME280;12193;42.642;23.384;2023-05-18T08:28:52;94282.34;;;13.20;100.00
6425;BME280;12193;42.642;23.384;2023-05-18T08:31:21;94289.59;;;13.18;100.00
6425;BME280;12193;42.642;23.384;2023-05-18T08:33:51;94288.34;;;13.09;100.00
6425;BME280;12193;42.642;23.384;2023-05-18T08:36:20;94290.66;;;12.99;100.00
6425;BME280;12193;42.642;23.384;2023-05-18T08:38:52;94291.19;;;12.90;100.00
6425;BME280;12193;42.642;23.384;2023-05-18T08:41:25;94305.78;;;13.09;100.00
6425;BME280;12193;42.642;23.384;2023-05-18T08:44:00;94301.31;;;12.98;100.00
6425;BME280;12193;42.642;23.384;2023-05-18T08:46:33;94306.94;;;13.13;100.00
6425;BME280;12193;42.642;23.384;2023-05-18T08:49:03;94303.69;;;12.99;100.00
6425;BME280;12193;42.642;23.384;2023-05-18T08:51:35;94306.16;;;12.94;100.00
6425;BME280;12193;42.642;23.384;2023-05-18T08:54:07;94311.94;;;12.78;100.00
6425;BME280;12193;42.642;23.384;2023-05-18T08:56:38;94316.75;;;12.99;100.00
6425;BME280;12193;42.642;23.384;2023-05-18T08:59:08;94321.63;;;12.96;100.00
6425;BME280;12193;42.642;23.384;2023-05-18T09:01:39;94324.47;;;12.88;100.00
6425;BME280;12193;42.642;23.384;2023-05-18T09:04:08;94317.66;;;12.93;100.00
6425;BME280;12193;42.642;23.384;2023-05-18T09:06:39;94324.78;;;13.16;100.00
6425;BME280;12193;42.642;23.384;2023-05-18T09:09:11;94331.69;;;13.10;100.00
6425;BME280;12193;42.642;23.384;2023-05-18T09:11:42;94334.88;;;13.12;100.00
6425;BME280;12193;42.642;23.384;2023-05-18T09:14:12;94337.44;;;13.30;100.00
6425;BME280;12193;42.642;23.384;2023-05-18T09:16:41;94340.09;;;13.42;100.00
6425;BME280;12193;42.642;23.384;2023-05-18T09:19:10;94337.94;;;13.39;100.00
6425;BME280;12193;42.642;23.384;2023-05-18T09:21:40;94332.13;;;13.37;100.00
6425;BME280;12193;42.642;23.384;2023-05-18T09:24:12;94348.50;;;13.44;100.00
6425;BME280;12193;42.642;23.384;2023-05-18T09:26:42;94327.41;;;13.45;100.00
6425;BME280;12193;42.642;23.384;2023-05-18T09:29:15;94338.47;;;13.58;100.00
6425;BME280;12193;42.642;23.384;2023-05-18T09:31:45;94338.94;;;13.67;100.00
6425;BME280;12193;42.642;23.384;2023-05-18T09:34:15;94335.88;;;13.70;100.00
6425;BME280;12193;42.642;23.384;2023-05-18T09:36:46;94344.63;;;13.75;100.00
6425;BME280;12193;42.642;23.384;2023-05-18T09:39:20;94349.16;;;13.68;100.00
6425;BME280;12193;42.642;23.384;2023-05-18T09:41:54;94348.03;;;13.47;100.00
6425;BME280;12193;42.642;23.384;2023-05-18T09:44:30;94356.88;;;13.34;100.00
6425;BME280;12193;42.642;23.384;2023-05-18T09:47:00;94353.75;;;13.26;100.00
6425;BME280;12193;42.642;23.384;2023-05-18T09:49:29;94355.84;;;13.35;100.00
6425;BME280;12193;42.642;23.384;2023-05-18T09:51:59;94360.50;;;13.15;100.00
6425;BME280;12193;42.642;23.384;2023-05-18T09:54:31;94360.97;;;13.12;100.00
6425;BME280;12193;42.642;23.384;2023-05-18T09:57:01;94360.00;;;13.07;100.00
6425;BME280;12193;42.642;23.384;2023-05-18T09:59:31;94356.38;;;13.08;100.00
6425;BME280;12193;42.642;23.384;2023-05-18T10:02:04;94360.16;;;13.12;100.00
6425;BME280;12193;42.642;23.384;2023-05-18T10:04:38;94369.16;;;13.16;100.00
6425;BME280;12193;42.642;23.384;2023-05-18T10:07:11;94360.34;;;13.28;100.00
6425;BME280;12193;42.642;23.384;2023-05-18T10:09:44;94371.16;;;13.32;100.00
6425;BME280;12193;42.642;23.384;2023-05-18T10:12:15;94368.97;;;13.29;100.00
6425;BME280;12193;42.642;23.384;2023-05-18T10:14:45;94372.97;;;13.31;100.00
6425;BME280;12193;42.642;23.384;2023-05-18T10:17:15;94381.59;;;13.32;100.00
6425;BME280;12193;42.642;23.384;2023-05-18T10:19:44;94373.75;;;13.32;100.00
6425;BME280;12193;42.642;23.384;2023-05-18T10:22:15;94374.88;;;13.24;100.00
6425;BME280;12193;42.642;23.384;2023-05-18T10:24:50;94375.06;;;13.41;100.00
6425;BME280;12193;42.642;23.384;2023-05-18T10:27:22;94383.63;;;13.59;100.00
6425;BME280;12193;42.642;23.384;2023-05-18T10:29:56;94384.16;;;13.79;100.00
6425;BME280;12193;42.642;23.384;2023-05-18T10:32:29;94391.47;;;13.88;100.00
6425;BME280;12193;42.642;23.384;2023-05-18T10:35:00;94390.44;;;13.89;100.00
6425;BME280;12193;42.642;23.384;2023-05-18T10:37:32;94387.47;;;13.86;100.00
6425;BME280;12193;42.642;23.384;2023-05-18T10:40:07;94399.44;;;13.93;100.00
6425;BME280;12193;42.642;23.384;2023-05-18T10:42:37;94398.69;;;14.04;100.00
6425;BME280;12193;42.642;23.384;2023-05-18T10:45:09;94399.66;;;14.21;100.00
6425;BME280;12193;42.642;23.384;2023-05-18T10:47:39;94406.03;;;14.25;100.00
6425;BME280;12193;42.642;23.384;2023-05-18T10:50:10;94409.19;;;14.27;100.00
6425;BME280;12193;42.642;23.384;2023-05-18T10:52:40;94415.94;;;13.94;100.00
6425;BME280;12193;42.642;23.384;2023-05-18T10:55:13;94405.06;;;13.49;100.00
6425;BME280;12193;42.642;23.384;2023-05-18T10:57:45;94420.41;;;13.28;100.00
6425;BME280;12193;42.642;23.384;2023-05-18T11:00:16;94433.88;;;13.07;100.00
6425;BME280;12193;42.642;23.384;2023-05-18T11:02:48;94427.16;;;13.18;100.00
6425;BME280;12193;42.642;23.384;2023-05-18T11:05:23;94431.78;;;13.16;100.00
6425;BME280;12193;42.642;23.384;2023-05-18T11:07:58;94434.97;;;13.18;100.00
6425;BME280;12193;42.642;23.384;2023-05-18T11:10:38;94434.38;;;12.98;100.00
6425;BME280;12193;42.642;23.384;2023-05-18T11:13:09;94436.78;;;12.99;100.00
6425;BME280;12193;42.642;23.384;2023-05-18T11:16:06;94439.25;;;13.12;100.00
6425;BME280;12193;42.642;23.384;2023-05-18T11:18:40;94438.31;;;12.82;100.00
6425;BME280;12193;42.642;23.384;2023-05-18T11:21:28;94453.28;;;12.69;100.00
6425;BME280;12193;42.642;23.384;2023-05-18T11:24:14;94449.03;;;12.50;100.00
6425;BME280;12193;42.642;23.384;2023-05-18T11:26:49;94459.06;;;12.29;100.00
6425;BME280;12193;42.642;23.384;2023-05-18T11:29:20;94459.59;;;12.06;100.00
6425;BME280;12193;42.642;23.384;2023-05-18T11:31:51;94454.75;;;11.79;100.00
6425;BME280;12193;42.642;23.384;2023-05-18T11:34:38;94462.69;;;11.90;100.00
6425;BME280;12193;42.642;23.384;2023-05-18T11:37:10;94452.53;;;11.82;100.00
6425;BME280;12193;42.642;23.384;2023-05-18T11:39:40;94455.31;;;11.87;100.00
6425;BME280;12193;42.642;23.384;2023-05-18T11:42:12;94453.66;;;11.93;100.00
6425;BME280;12193;42.642;23.384;2023-05-18T11:44:50;94454.78;;;11.72;100.00
6425;BME280;12193;42.642;23.384;2023-05-18T11:47:22;94452.28;;;11.59;100.00
6425;BME280;12193;42.642;23.384;2023-05-18T11:49:57;94457.06;;;11.49;100.00
6425;BME280;12193;42.642;23.384;2023-05-18T11:52:26;94453.09;;;11.47;100.00
6425;BME280;12193;42.642;23.384;2023-05-18T11:54:57;94455.81;;;11.71;100.00
6425;BME280;12193;42.642;23.384;2023-05-18T11:57:38;94449.44;;;11.98;100.00
6425;BME280;12193;42.642;23.384;2023-05-18T12:00:12;94442.75;;;12.09;100.00
6425;BME280;12193;42.642;23.384;2023-05-18T12:02:43;94448.16;;;12.07;100.00
6425;BME280;12193;42.642;23.384;2023-05-18T12:05:13;94451.00;;;12.06;100.00
6425;BME280;12193;42.642;23.384;2023-05-18T12:07:42;94446.16;;;12.09;100.00
6425;BME280;12193;42.642;23.384;2023-05-18T12:10:13;94448.22;;;12.32;100.00
6425;BME280;12193;42.642;23.384;2023-05-18T12:12:46;94441.22;;;12.50;100.00
6425;BME280;12193;42.642;23.384;2023-05-18T12:15:20;94459.81;;;12.60;100.00
6425;BME280;12193;42.642;23.384;2023-05-18T12:17:50;94458.09;;;12.72;100.00
6425;BME280;12193;42.642;23.384;2023-05-18T12:20:21;94455.63;;;12.77;100.00
6425;BME280;12193;42.642;23.384;2023-05-18T12:22:53;94460.91;;;12.70;100.00
6425;BME280;12193;42.642;23.384;2023-05-18T12:25:24;94460.16;;;12.63;100.00
6425;BME280;12193;42.642;23.384;2023-05-18T12:27:56;94464.78;;;12.61;100.00
6425;BME280;12193;42.642;23.384;2023-05-18T12:30:27;94458.88;;;12.48;100.00
6425;BME280;12193;42.642;23.384;2023-05-18T12:33:00;94464.25;;;12.53;100.00
6425;BME280;12193;42.642;23.384;2023-05-18T12:35:31;94455.19;;;12.62;100.00
6425;BME280;12193;42.642;23.384;2023-05-18T12:38:01;94461.44;;;12.79;100.00
6425;BME280;12193;42.642;23.384;2023-05-18T12:40:34;94460.50;;;13.16;100.00
6425;BME280;12193;42.642;23.384;2023-05-18T12:43:12;94464.69;;;13.35;100.00
6425;BME280;12193;42.642;23.384;2023-05-18T12:45:43;94462.44;;;13.38;100.00
6425;BME280;12193;42.642;23.384;2023-05-18T12:48:13;94467.31;;;13.35;100.00
6425;BME280;12193;42.642;23.384;2023-05-18T12:50:46;94465.72;;;13.34;100.00
6425;BME280;12193;42.642;23.384;2023-05-18T12:53:16;94466.66;;;13.39;100.00
6425;BME280;12193;42.642;23.384;2023-05-18T12:55:55;94464.09;;;13.50;100.00
6425;BME280;12193;42.642;23.384;2023-05-18T12:58:27;94465.75;;;13.63;100.00
6425;BME280;12193;42.642;23.384;2023-05-18T13:00:58;94472.28;;;13.72;100.00
6425;BME280;12193;42.642;23.384;2023-05-18T13:03:34;94471.38;;;13.78;100.00
6425;BME280;12193;42.642;23.384;2023-05-18T13:06:05;94473.81;;;13.79;100.00
6425;BME280;12193;42.642;23.384;2023-05-18T13:08:35;94469.25;;;13.75;100.00
6425;BME280;12193;42.642;23.384;2023-05-18T13:11:07;94467.41;;;13.75;100.00
6425;BME280;12193;42.642;23.384;2023-05-18T13:13:56;94470.56;;;13.66;100.00
6425;BME280;12193;42.642;23.384;2023-05-18T13:16:29;94474.34;;;13.52;100.00
6425;BME280;12193;42.642;23.384;2023-05-18T13:18:59;94472.16;;;13.49;100.00
6425;BME280;12193;42.642;23.384;2023-05-18T13:21:29;94475.44;;;13.45;100.00
6425;BME280;12193;42.642;23.384;2023-05-18T13:23:59;94471.34;;;13.48;100.00
6425;BME280;12193;42.642;23.384;2023-05-18T13:26:29;94468.69;;;13.19;100.00
6425;BME280;12193;42.642;23.384;2023-05-18T13:29:00;94472.88;;;13.02;100.00
6425;BME280;12193;42.642;23.384;2023-05-18T13:31:30;94479.19;;;13.31;100.00
6425;BME280;12193;42.642;23.384;2023-05-18T13:33:59;94476.31;;;13.39;100.00
6425;BME280;12193;42.642;23.384;2023-05-18T13:36:28;94479.06;;;13.61;100.00
6425;BME280;12193;42.642;23.384;2023-05-18T13:38:59;94480.16;;;13.54;100.00
6425;BME280;12193;42.642;23.384;2023-05-18T13:41:31;94481.09;;;13.59;100.00
6425;BME280;12193;42.642;23.384;2023-05-18T13:44:04;94486.00;;;13.67;100.00
6425;BME280;12193;42.642;23.384;2023-05-18T13:46:34;94491.22;;;13.85;100.00
6425;BME280;12193;42.642;23.384;2023-05-18T13:49:03;94487.56;;;13.86;100.00
6425;BME280;12193;42.642;23.384;2023-05-18T13:51:32;94487.00;;;13.84;100.00
6425;BME280;12193;42.642;23.384;2023-05-18T13:54:02;94486.63;;;13.81;100.00
6425;BME280;12193;42.642;23.384;2023-05-18T13:56:33;94485.84;;;13.80;100.00
6425;BME280;12193;42.642;23.384;2023-05-18T13:59:05;94491.28;;;13.79;100.00
6425;BME280;12193;42.642;23.384;2023-05-18T14:01:34;94483.50;;;13.90;100.00
6425;BME280;12193;42.642;23.384;2023-05-18T14:04:03;94488.47;;;13.80;100.00
6425;BME280;12193;42.642;23.384;2023-05-18T14:06:32;94496.09;;;13.46;100.00
6425;BME280;12193;42.642;23.384;2023-05-18T14:09:03;94493.91;;;13.43;100.00
6425;BME280;12193;42.642;23.384;2023-05-18T14:11:32;94497.28;;;13.32;100.00
6425;BME280;12193;42.642;23.384;2023-05-18T14:14:06;94498.94;;;13.45;100.00
6425;BME280;12193;42.642;23.384;2023-05-18T14:16:35;94502.03;;;13.35;100.00
6425;BME280;12193;42.642;23.384;2023-05-18T14:19:05;94503.59;;;13.00;100.00
6425;BME280;12193;42.642;23.384;2023-05-18T14:21:34;94492.75;;;13.03;100.00
6425;BME280;12193;42.642;23.384;2023-05-18T14:24:03;94500.22;;;13.18;100.00
6425;BME280;12193;42.642;23.384;2023-05-18T14:26:35;94494.69;;;13.08;100.00
6425;BME280;12193;42.642;23.384;2023-05-18T14:29:07;94501.44;;;13.15;100.00
6425;BME280;12193;42.642;23.384;2023-05-18T14:31:36;94502.75;;;13.06;100.00
6425;BME280;12193;42.642;23.384;2023-05-18T14:34:05;94499.16;;;12.76;100.00
6425;BME280;12193;42.642;23.384;2023-05-18T14:36:34;94497.91;;;12.85;100.00
6425;BME280;12193;42.642;23.384;2023-05-18T14:39:04;94496.19;;;12.73;100.00
6425;BME280;12193;42.642;23.384;2023-05-18T14:41:33;94491.78;;;12.49;100.00
6425;BME280;12193;42.642;23.384;2023-05-18T14:44:02;94496.19;;;12.48;100.00
6425;BME280;12193;42.642;23.384;2023-05-18T14:46:36;94497.38;;;12.52;100.00
6425;BME280;12193;42.642;23.384;2023-05-18T14:49:06;94500.94;;;12.58;100.00
6425;BME280;12193;42.642;23.384;2023-05-18T14:51:35;94503.34;;;12.84;100.00
6425;BME280;12193;42.642;23.384;2023-05-18T14:54:05;94507.81;;;12.77;100.00
6425;BME280;12193;42.642;23.384;2023-05-18T14:56:34;94504.34;;;12.83;100.00
6425;BME280;12193;42.642;23.384;2023-05-18T14:59:04;94511.06;;;12.72;100.00
6425;BME280;12193;42.642;23.384;2023-05-18T15:01:35;94509.00;;;12.74;100.00
6425;BME280;12193;42.642;23.384;2023-05-18T15:04:05;94499.34;;;12.57;100.00
6425;BME280;12193;42.642;23.384;2023-05-18T15:06:34;94503.09;;;12.37;100.00
6425;BME280;12193;42.642;23.384;2023-05-18T15:09:03;94497.63;;;12.44;100.00
6425;BME280;12193;42.642;23.384;2023-05-18T15:11:34;94497.44;;;12.40;100.00
6425;BME280;12193;42.642;23.384;2023-05-18T15:14:03;94499.53;;;12.55;100.00
6425;BME280;12193;42.642;23.384;2023-05-18T15:16:32;94495.44;;;12.66;100.00
6425;BME280;12193;42.642;23.384;2023-05-18T15:19:04;94493.78;;;12.47;100.00
6425;BME280;12193;42.642;23.384;2023-05-18T15:21:33;94493.84;;;12.65;100.00
6425;BME280;12193;42.642;23.384;2023-05-18T15:24:03;94493.59;;;12.73;100.00
6425;BME280;12193;42.642;23.384;2023-05-18T15:26:32;94485.59;;;12.43;100.00
6425;BME280;12193;42.642;23.384;2023-05-18T15:29:01;94486.56;;;12.49;100.00
6425;BME280;12193;42.642;23.384;2023-05-18T15:31:31;94470.53;;;12.21;100.00
6425;BME280;12193;42.642;23.384;2023-05-18T15:34:05;94477.53;;;12.21;100.00
6425;BME280;12193;42.642;23.384;2023-05-18T15:36:34;94476.53;;;12.22;100.00
6425;BME280;12193;42.642;23.384;2023-05-18T15:39:03;94469.84;;;12.32;100.00
6425;BME280;12193;42.642;23.384;2023-05-18T15:41:34;94475.75;;;12.70;100.00
6425;BME280;12193;42.642;23.384;2023-05-18T15:44:04;94481.41;;;12.91;100.00
6425;BME280;12193;42.642;23.384;2023-05-18T15:46:33;94491.00;;;13.15;100.00
6425;BME280;12193;42.642;23.384;2023-05-18T15:49:06;94498.63;;;13.17;100.00
6425;BME280;12193;42.642;23.384;2023-05-18T15:51:36;94514.63;;;13.02;100.00
6425;BME280;12193;42.642;23.384;2023-05-18T15:54:05;94517.75;;;13.11;100.00
6425;BME280;12193;42.642;23.384;2023-05-18T15:56:34;94509.47;;;12.96;100.00
6425;BME280;12193;42.642;23.384;2023-05-18T15:59:03;94509.75;;;12.81;100.00
6425;BME280;12193;42.642;23.384;2023-05-18T16:01:34;94501.78;;;12.76;100.00
6425;BME280;12193;42.642;23.384;2023-05-18T16:04:05;94492.50;;;12.80;100.00
6425;BME280;12193;42.642;23.384;2023-05-18T16:06:35;94499.06;;;12.65;100.00
6425;BME280;12193;42.642;23.384;2023-05-18T16:09:04;94505.34;;;12.82;100.00
6425;BME280;12193;42.642;23.384;2023-05-18T16:11:33;94503.75;;;12.81;100.00